Portada
METAR-TAF:

METAR-TAF

Aeropuertos :

Palma de Mallorca, España

Aeropuerto de Palma de Mallorca

latitud: 39-33N, longitud: 002-44E, altitud: 4 m

Observación

El informe se hizo hace 25 minutos, a las 09:30 UTC
Viento calma
Temperatura 20°C
Humedad 73%
Presión 1025 hPa
Visibilidad 10 km o más
Escasas nubes a una altura de 4000 ft

METAR: LEPA 230930Z 00000KT 9999 FEW040 20/15 Q1025 NOSIG

Hora: 11:55 (09:55 UTC)

Pronóstico

El informe se hizo hace 4 horas y 55 minutos, a las 05:00 UTC
Pronóstico válido del 23 a las 06 UTC al 24 a las 06 UTC
Viento 4 kt con dirección variable
Visibilidad 10 km o más
Nubes dispersas a una altura de 4000 ft
Evolucionando progresivamente
del 23 a las 11 UTC al 23 a las 13 UTC
Viento 10 kt del suroeste
Evolucionando progresivamente
del 23 a las 18 UTC al 23 a las 20 UTC
Viento 4 kt con dirección variable

TAF: LEPA 230500Z 2306/2406 VRB04KT 9999 SCT040 TX21/2312Z TN10/2306Z BECMG 2311/2313 22010KT BECMG 2318/2320 VRB04KT

Observaciones y pronósticos meteorológicos de más de 4000 aeropuertos (mensajes METAR y TAF).

Los puntos amarillos y rojos representan las estaciones disponibles.

Ponga el ratón en el punto deseado para ver el nombre de la estación.

Haga clic para ver las observaciones y los pronósticos meteorológicos.

Para cambiar el mapa : haga clic en los botones verdes con una cruz de color negro para hacer un zoom, en el botón verde con un guión para alejar o en las flechas verdes para mapas adyacentes.


METAR-TAF: